N257MC KLAX-KLAS
Flight info
| Callsign | N257MC |
|---|---|
| Flight time | 1h 0m |
| Altitude | 29000 |
| Route | ORCKA5 MISEN RNDRZ4 |
| Aircraft | SF50/L-SDGRWY/L |
Departure
| Time | 2026-05-08 02:59 |
|---|---|
| Airport | Los Angeles International Airport (KLAX) |
Arrival
| Time | 2026-05-08 03:59 |
|---|---|
| Airport | Harry Reid International Airport (KLAS) |
| Time | Latitude | Longitude | Altitude | Speed | Heading |
|---|---|---|---|---|---|
| 2026-05-08 02:43 | 33.93391 | -118.39570 | 88 ft | 0 kts | 225° |
| 2026-05-08 02:52 | 33.93379 | -118.39566 | 88 ft | 0 kts | 91° |
| 2026-05-08 02:52 | 33.93393 | -118.39542 | 88 ft | 4 kts | 54° |
| 2026-05-08 02:53 | 33.93410 | -118.39513 | 89 ft | 5 kts | 56° |
| 2026-05-08 02:53 | 33.93425 | -118.39474 | 89 ft | 6 kts | 80° |
| 2026-05-08 02:53 | 33.93430 | -118.39425 | 87 ft | 5 kts | 82° |
| 2026-05-08 02:53 | 33.93444 | -118.39394 | 88 ft | 14 kts | 16° |
| 2026-05-08 02:54 | 33.93506 | -118.39318 | 87 ft | 12 kts | 79° |
| 2026-05-08 02:54 | 33.93516 | -118.39226 | 87 ft | 10 kts | 83° |
| 2026-05-08 02:54 | 33.93525 | -118.39137 | 87 ft | 11 kts | 83° |
| 2026-05-08 02:54 | 33.93536 | -118.39035 | 87 ft | 13 kts | 83° |
| 2026-05-08 02:55 | 33.93548 | -118.38908 | 87 ft | 15 kts | 84° |
| 2026-05-08 02:55 | 33.93573 | -118.38677 | 87 ft | 15 kts | 84° |
| 2026-05-08 02:55 | 33.93586 | -118.38544 | 88 ft | 16 kts | 82° |
| 2026-05-08 02:56 | 33.93598 | -118.38424 | 89 ft | 13 kts | 82° |
| 2026-05-08 02:56 | 33.93610 | -118.38322 | 89 ft | 12 kts | 72° |
| 2026-05-08 02:56 | 33.93663 | -118.38279 | 89 ft | 9 kts | 353° |
| 2026-05-08 02:56 | 33.93723 | -118.38295 | 91 ft | 8 kts | 319° |
| 2026-05-08 02:57 | 33.93731 | -118.38327 | 91 ft | 0 kts | 263° |
| 2026-05-08 02:59 | 33.93704 | -118.38604 | 88 ft | 75 kts | 263° |
| 2026-05-08 02:59 | 33.93623 | -118.39375 | 511 ft | 99 kts | 262° |
| 2026-05-08 02:59 | 33.93510 | -118.40291 | 1144 ft | 124 kts | 259° |
| 2026-05-08 03:00 | 33.93374 | -118.41431 | 1834 ft | 150 kts | 263° |
| 2026-05-08 03:00 | 33.93236 | -118.42742 | 2675 ft | 162 kts | 264° |
| 2026-05-08 03:00 | 33.93094 | -118.44097 | 3629 ft | 162 kts | 265° |
| 2026-05-08 03:00 | 33.92955 | -118.45446 | 4240 ft | 165 kts | 265° |
| 2026-05-08 03:01 | 33.92607 | -118.46769 | 4831 ft | 169 kts | 246° |
| 2026-05-08 03:01 | 33.92035 | -118.48008 | 5418 ft | 170 kts | 245° |
| 2026-05-08 03:01 | 33.91462 | -118.49264 | 6010 ft | 172 kts | 245° |
| 2026-05-08 03:01 | 33.90882 | -118.50540 | 6573 ft | 175 kts | 245° |
| 2026-05-08 03:02 | 33.90299 | -118.51831 | 7122 ft | 177 kts | 245° |
| 2026-05-08 03:02 | 33.89710 | -118.53147 | 7656 ft | 180 kts | 245° |
| 2026-05-08 03:02 | 33.89117 | -118.54486 | 8190 ft | 183 kts | 245° |
| 2026-05-08 03:02 | 33.88496 | -118.55835 | 8714 ft | 187 kts | 240° |
| 2026-05-08 03:03 | 33.87580 | -118.56960 | 9208 ft | 197 kts | 208° |
| 2026-05-08 03:03 | 33.86225 | -118.56973 | 9757 ft | 203 kts | 158° |
| 2026-05-08 03:03 | 33.85211 | -118.55848 | 10277 ft | 202 kts | 113° |
| 2026-05-08 03:03 | 33.85100 | -118.54224 | 10802 ft | 196 kts | 71° |
| 2026-05-08 03:04 | 33.85831 | -118.52914 | 11293 ft | 192 kts | 44° |
| 2026-05-08 03:04 | 33.86776 | -118.51745 | 11795 ft | 193 kts | 45° |
| 2026-05-08 03:04 | 33.87690 | -118.50585 | 12280 ft | 194 kts | 46° |
| 2026-05-08 03:04 | 33.88621 | -118.49409 | 12799 ft | 194 kts | 46° |
| 2026-05-08 03:05 | 33.89556 | -118.48226 | 13268 ft | 196 kts | 47° |
| 2026-05-08 03:05 | 33.90502 | -118.47034 | 13739 ft | 198 kts | 47° |
| 2026-05-08 03:05 | 33.91455 | -118.45827 | 14165 ft | 199 kts | 47° |
| 2026-05-08 03:05 | 33.92414 | -118.44617 | 14574 ft | 201 kts | 47° |
| 2026-05-08 03:06 | 33.93324 | -118.43337 | 14982 ft | 201 kts | 56° |
| 2026-05-08 03:06 | 33.94098 | -118.41925 | 15382 ft | 203 kts | 56° |
| 2026-05-08 03:06 | 33.94898 | -118.40515 | 15791 ft | 204 kts | 55° |
| 2026-05-08 03:06 | 33.95702 | -118.39100 | 16219 ft | 205 kts | 55° |
| 2026-05-08 03:07 | 33.96511 | -118.37676 | 16605 ft | 208 kts | 54° |
| 2026-05-08 03:07 | 33.97329 | -118.36231 | 17023 ft | 208 kts | 54° |
| 2026-05-08 03:07 | 33.98146 | -118.34791 | 17448 ft | 209 kts | 54° |
| 2026-05-08 03:07 | 33.98968 | -118.33337 | 17827 ft | 211 kts | 54° |
| 2026-05-08 03:08 | 33.99786 | -118.31894 | 18225 ft | 212 kts | 54° |
| 2026-05-08 03:08 | 34.00620 | -118.30421 | 18566 ft | 214 kts | 54° |
| 2026-05-08 03:08 | 34.01470 | -118.28917 | 18904 ft | 215 kts | 54° |
| 2026-05-08 03:08 | 34.02303 | -118.27451 | 19236 ft | 215 kts | 54° |
| 2026-05-08 03:09 | 34.03149 | -118.25957 | 19560 ft | 217 kts | 54° |
| 2026-05-08 03:09 | 34.04002 | -118.24454 | 19896 ft | 217 kts | 54° |
| 2026-05-08 03:09 | 34.04852 | -118.22951 | 20213 ft | 218 kts | 54° |
| 2026-05-08 03:09 | 34.05710 | -118.21436 | 20526 ft | 219 kts | 54° |
| 2026-05-08 03:10 | 34.06572 | -118.19915 | 20837 ft | 220 kts | 54° |
| 2026-05-08 03:10 | 34.07434 | -118.18387 | 21158 ft | 220 kts | 54° |
| 2026-05-08 03:10 | 34.08296 | -118.16865 | 21503 ft | 219 kts | 54° |
| 2026-05-08 03:10 | 34.09155 | -118.15344 | 21850 ft | 219 kts | 54° |
| 2026-05-08 03:11 | 34.10012 | -118.13827 | 22194 ft | 219 kts | 54° |
| 2026-05-08 03:11 | 34.10866 | -118.12315 | 22531 ft | 218 kts | 54° |
| 2026-05-08 03:11 | 34.11719 | -118.10803 | 22881 ft | 218 kts | 54° |
| 2026-05-08 03:11 | 34.12570 | -118.09296 | 23228 ft | 217 kts | 54° |
| 2026-05-08 03:12 | 34.13418 | -118.07789 | 23572 ft | 217 kts | 54° |
| 2026-05-08 03:12 | 34.14266 | -118.06287 | 23882 ft | 216 kts | 54° |
| 2026-05-08 03:12 | 34.15105 | -118.04796 | 24200 ft | 213 kts | 54° |
| 2026-05-08 03:12 | 34.15937 | -118.03318 | 24494 ft | 213 kts | 54° |
| 2026-05-08 03:13 | 34.16770 | -118.01841 | 24784 ft | 213 kts | 54° |
| 2026-05-08 03:13 | 34.17607 | -118.00352 | 25072 ft | 212 kts | 54° |
| 2026-05-08 03:13 | 34.20837 | -117.94605 | 26248 ft | 211 kts | 54° |
| 2026-05-08 03:13 | 34.23033 | -117.90694 | 27102 ft | 210 kts | 54° |
| 2026-05-08 03:14 | 34.24670 | -117.87777 | 27766 ft | 209 kts | 54° |
| 2026-05-08 03:14 | 34.25981 | -117.85436 | 28292 ft | 209 kts | 53° |
| 2026-05-08 03:14 | 34.26849 | -117.83890 | 28634 ft | 208 kts | 54° |
| 2026-05-08 03:14 | 34.27659 | -117.82438 | 28938 ft | 208 kts | 54° |
| 2026-05-08 03:15 | 34.28491 | -117.80957 | 28989 ft | 219 kts | 54° |
| 2026-05-08 03:15 | 34.29364 | -117.79394 | 29003 ft | 229 kts | 54° |
| 2026-05-08 03:15 | 34.30276 | -117.77763 | 28999 ft | 239 kts | 54° |
| 2026-05-08 03:15 | 34.31222 | -117.76072 | 28997 ft | 246 kts | 54° |
| 2026-05-08 03:16 | 34.32196 | -117.74327 | 28996 ft | 254 kts | 54° |
| 2026-05-08 03:16 | 34.33186 | -117.72557 | 28998 ft | 261 kts | 54° |
| 2026-05-08 03:16 | 34.34212 | -117.70715 | 28990 ft | 267 kts | 54° |
| 2026-05-08 03:16 | 34.35292 | -117.68812 | 28989 ft | 273 kts | 52° |
| 2026-05-08 03:17 | 34.36409 | -117.66964 | 28983 ft | 278 kts | 52° |
| 2026-05-08 03:17 | 34.37563 | -117.65019 | 28981 ft | 283 kts | 53° |
| 2026-05-08 03:17 | 34.38707 | -117.63102 | 28977 ft | 286 kts | 52° |
| 2026-05-08 03:17 | 34.39894 | -117.61116 | 28973 ft | 290 kts | 52° |
| 2026-05-08 03:18 | 34.41064 | -117.59157 | 28966 ft | 292 kts | 53° |
| 2026-05-08 03:18 | 34.42257 | -117.57154 | 28964 ft | 294 kts | 53° |
| 2026-05-08 03:18 | 34.43461 | -117.55138 | 28959 ft | 296 kts | 53° |
| 2026-05-08 03:18 | 34.44668 | -117.53110 | 28943 ft | 297 kts | 52° |
| 2026-05-08 03:19 | 34.45876 | -117.51082 | 29014 ft | 296 kts | 52° |
| 2026-05-08 03:19 | 34.47077 | -117.49063 | 29018 ft | 295 kts | 52° |
| 2026-05-08 03:19 | 34.48278 | -117.47046 | 29032 ft | 295 kts | 52° |
| 2026-05-08 03:19 | 34.49475 | -117.45031 | 29032 ft | 294 kts | 52° |
| 2026-05-08 03:20 | 34.50669 | -117.43023 | 29038 ft | 293 kts | 52° |
| 2026-05-08 03:20 | 34.51864 | -117.41009 | 29040 ft | 294 kts | 52° |
| 2026-05-08 03:20 | 34.53058 | -117.38999 | 29041 ft | 294 kts | 52° |
| 2026-05-08 03:20 | 34.54253 | -117.36983 | 29040 ft | 295 kts | 52° |
| 2026-05-08 03:21 | 34.55452 | -117.34961 | 29040 ft | 294 kts | 52° |
| 2026-05-08 03:21 | 34.56646 | -117.32945 | 29040 ft | 295 kts | 52° |
| 2026-05-08 03:21 | 34.57841 | -117.30929 | 29040 ft | 294 kts | 52° |
| 2026-05-08 03:21 | 34.59037 | -117.28908 | 29039 ft | 294 kts | 52° |
| 2026-05-08 03:22 | 34.60231 | -117.26889 | 29036 ft | 294 kts | 52° |
| 2026-05-08 03:22 | 34.61426 | -117.24868 | 29026 ft | 295 kts | 52° |
| 2026-05-08 03:22 | 34.62620 | -117.22846 | 29017 ft | 294 kts | 52° |
| 2026-05-08 03:22 | 34.63812 | -117.20828 | 29007 ft | 295 kts | 52° |
| 2026-05-08 03:23 | 34.65004 | -117.18809 | 29001 ft | 294 kts | 53° |
| 2026-05-08 03:23 | 34.66196 | -117.16789 | 28908 ft | 294 kts | 52° |
| 2026-05-08 03:23 | 34.67384 | -117.14771 | 28910 ft | 293 kts | 53° |
| 2026-05-08 03:23 | 34.68570 | -117.12759 | 28910 ft | 293 kts | 52° |
| 2026-05-08 03:24 | 34.69754 | -117.10748 | 28907 ft | 292 kts | 53° |
| 2026-05-08 03:24 | 34.70939 | -117.08734 | 28910 ft | 293 kts | 52° |
| 2026-05-08 03:24 | 34.72124 | -117.06722 | 28908 ft | 293 kts | 53° |
| 2026-05-08 03:24 | 34.73308 | -117.04706 | 28909 ft | 293 kts | 52° |
| 2026-05-08 03:25 | 34.74493 | -117.02689 | 28906 ft | 293 kts | 53° |
| 2026-05-08 03:25 | 34.75678 | -117.00671 | 28906 ft | 294 kts | 52° |
| 2026-05-08 03:25 | 34.76867 | -116.98645 | 28905 ft | 293 kts | 53° |
| 2026-05-08 03:25 | 34.78049 | -116.96629 | 28909 ft | 293 kts | 52° |
| 2026-05-08 03:26 | 34.79229 | -116.94615 | 28912 ft | 292 kts | 53° |
| 2026-05-08 03:26 | 34.80400 | -116.92619 | 28916 ft | 293 kts | 52° |
| 2026-05-08 03:26 | 34.81600 | -116.90569 | 28917 ft | 294 kts | 53° |
| 2026-05-08 03:26 | 34.82787 | -116.88540 | 28922 ft | 294 kts | 52° |
| 2026-05-08 03:27 | 34.83971 | -116.86514 | 28927 ft | 295 kts | 53° |
| 2026-05-08 03:27 | 34.85161 | -116.84481 | 28928 ft | 294 kts | 52° |
| 2026-05-08 03:27 | 34.86329 | -116.82481 | 28925 ft | 293 kts | 53° |
| 2026-05-08 03:27 | 34.87511 | -116.80457 | 28925 ft | 293 kts | 52° |
| 2026-05-08 03:28 | 34.88693 | -116.78431 | 28927 ft | 294 kts | 53° |
| 2026-05-08 03:28 | 34.89880 | -116.76396 | 28926 ft | 295 kts | 53° |
| 2026-05-08 03:28 | 34.91068 | -116.74358 | 28926 ft | 295 kts | 53° |
| 2026-05-08 03:28 | 34.92252 | -116.72324 | 28927 ft | 294 kts | 53° |
| 2026-05-08 03:29 | 34.93415 | -116.70279 | 28918 ft | 294 kts | 53° |
| 2026-05-08 03:29 | 34.94563 | -116.68222 | 28914 ft | 293 kts | 53° |
| 2026-05-08 03:29 | 34.95719 | -116.66174 | 28908 ft | 294 kts | 53° |
| 2026-05-08 03:29 | 34.96881 | -116.64126 | 28904 ft | 294 kts | 53° |
| 2026-05-08 03:30 | 34.99197 | -116.60021 | 28893 ft | 293 kts | 53° |
| 2026-05-08 03:30 | 35.01502 | -116.55932 | 28887 ft | 294 kts | 53° |
| 2026-05-08 03:31 | 35.03830 | -116.51798 | 28878 ft | 296 kts | 53° |
| 2026-05-08 03:31 | 35.06167 | -116.47645 | 28857 ft | 297 kts | 53° |
| 2026-05-08 03:32 | 35.07336 | -116.45563 | 28848 ft | 296 kts | 53° |
| 2026-05-08 03:32 | 35.08498 | -116.43495 | 28844 ft | 296 kts | 53° |
| 2026-05-08 03:32 | 35.09658 | -116.41426 | 28844 ft | 295 kts | 53° |
| 2026-05-08 03:32 | 35.10911 | -116.39507 | 28838 ft | 292 kts | 44° |
| 2026-05-08 03:33 | 35.12325 | -116.37729 | 28839 ft | 293 kts | 45° |
| 2026-05-08 03:33 | 35.13723 | -116.35905 | 28718 ft | 296 kts | 45° |
| 2026-05-08 03:33 | 35.15125 | -116.34075 | 28358 ft | 292 kts | 45° |
| 2026-05-08 03:33 | 35.16506 | -116.32294 | 27998 ft | 285 kts | 45° |
| 2026-05-08 03:34 | 35.17885 | -116.30515 | 27614 ft | 285 kts | 45° |
| 2026-05-08 03:34 | 35.19234 | -116.28769 | 27243 ft | 288 kts | 45° |
| 2026-05-08 03:34 | 35.20616 | -116.26979 | 26860 ft | 292 kts | 45° |
| 2026-05-08 03:34 | 35.22019 | -116.25161 | 26481 ft | 295 kts | 45° |
| 2026-05-08 03:35 | 35.23323 | -116.23242 | 26059 ft | 295 kts | 55° |
| 2026-05-08 03:35 | 35.24157 | -116.20951 | 25648 ft | 296 kts | 69° |
| 2026-05-08 03:35 | 35.24618 | -116.18495 | 25248 ft | 299 kts | 80° |
| 2026-05-08 03:35 | 35.24776 | -116.15949 | 24835 ft | 300 kts | 76° |
| 2026-05-08 03:36 | 35.25502 | -116.13568 | 24433 ft | 298 kts | 57° |
| 2026-05-08 03:36 | 35.26791 | -116.11629 | 24072 ft | 293 kts | 40° |
| 2026-05-08 03:36 | 35.27890 | -116.10687 | 23816 ft | 291 kts | 28° |
| 2026-05-08 03:36 | 35.30136 | -116.09695 | 23378 ft | 289 kts | 15° |
| 2026-05-08 03:37 | 35.32096 | -116.09116 | 22946 ft | 290 kts | 17° |
| 2026-05-08 03:37 | 35.33918 | -116.08027 | 22518 ft | 294 kts | 31° |
| 2026-05-08 03:37 | 35.35500 | -116.06416 | 22099 ft | 297 kts | 44° |
| 2026-05-08 03:37 | 35.36949 | -116.04615 | 21705 ft | 297 kts | 43° |
| 2026-05-08 03:38 | 35.38407 | -116.02832 | 21315 ft | 297 kts | 44° |
| 2026-05-08 03:38 | 35.39785 | -116.00948 | 20959 ft | 297 kts | 48° |
| 2026-05-08 03:38 | 35.41099 | -115.98999 | 20586 ft | 296 kts | 48° |
| 2026-05-08 03:38 | 35.42467 | -115.97100 | 20224 ft | 298 kts | 46° |
| 2026-05-08 03:39 | 35.43864 | -115.95222 | 19863 ft | 299 kts | 46° |
| 2026-05-08 03:39 | 35.45249 | -115.93317 | 19508 ft | 300 kts | 46° |
| 2026-05-08 03:39 | 35.46632 | -115.91397 | 19158 ft | 301 kts | 46° |
| 2026-05-08 03:39 | 35.48019 | -115.89478 | 18919 ft | 298 kts | 46° |
| 2026-05-08 03:40 | 35.49408 | -115.87564 | 18660 ft | 304 kts | 46° |
| 2026-05-08 03:40 | 35.50816 | -115.85618 | 18274 ft | 304 kts | 46° |
| 2026-05-08 03:40 | 35.52208 | -115.83688 | 17866 ft | 301 kts | 46° |
| 2026-05-08 03:40 | 35.53603 | -115.81760 | 17535 ft | 305 kts | 46° |
| 2026-05-08 03:41 | 35.55022 | -115.79800 | 17131 ft | 307 kts | 46° |
| 2026-05-08 03:41 | 35.56435 | -115.77838 | 16732 ft | 306 kts | 46° |
| 2026-05-08 03:41 | 35.57843 | -115.75886 | 16343 ft | 305 kts | 46° |
| 2026-05-08 03:41 | 35.59247 | -115.73940 | 16037 ft | 304 kts | 46° |
| 2026-05-08 03:42 | 35.60648 | -115.72029 | 16031 ft | 298 kts | 45° |
| 2026-05-08 03:42 | 35.62046 | -115.70170 | 16029 ft | 294 kts | 45° |
| 2026-05-08 03:42 | 35.63421 | -115.68320 | 16026 ft | 291 kts | 46° |
| 2026-05-08 03:42 | 35.64776 | -115.66480 | 16028 ft | 290 kts | 46° |
| 2026-05-08 03:43 | 35.66130 | -115.64652 | 16023 ft | 289 kts | 45° |
| 2026-05-08 03:43 | 35.67462 | -115.62852 | 16034 ft | 288 kts | 45° |
| 2026-05-08 03:43 | 35.68813 | -115.61026 | 16032 ft | 289 kts | 45° |
| 2026-05-08 03:43 | 35.70162 | -115.59199 | 16032 ft | 288 kts | 45° |
| 2026-05-08 03:44 | 35.71509 | -115.57372 | 16034 ft | 288 kts | 45° |
| 2026-05-08 03:44 | 35.72925 | -115.55644 | 16028 ft | 286 kts | 37° |
| 2026-05-08 03:44 | 35.74593 | -115.54338 | 16025 ft | 283 kts | 27° |
| 2026-05-08 03:44 | 35.76313 | -115.53151 | 16022 ft | 283 kts | 28° |
| 2026-05-08 03:45 | 35.78045 | -115.51932 | 15777 ft | 291 kts | 28° |
| 2026-05-08 03:45 | 35.79830 | -115.50676 | 15411 ft | 301 kts | 28° |
| 2026-05-08 03:45 | 35.81665 | -115.49389 | 15013 ft | 304 kts | 28° |
| 2026-05-08 03:45 | 35.83505 | -115.48103 | 14612 ft | 305 kts | 28° |
| 2026-05-08 03:46 | 35.85331 | -115.46819 | 14203 ft | 299 kts | 28° |
| 2026-05-08 03:46 | 35.87124 | -115.45558 | 13810 ft | 296 kts | 28° |
| 2026-05-08 03:46 | 35.88915 | -115.44304 | 13395 ft | 296 kts | 28° |
| 2026-05-08 03:46 | 35.90696 | -115.43052 | 13050 ft | 294 kts | 28° |
| 2026-05-08 03:47 | 35.92457 | -115.41816 | 13041 ft | 289 kts | 27° |
| 2026-05-08 03:47 | 35.94198 | -115.40606 | 13039 ft | 286 kts | 27° |
| 2026-05-08 03:47 | 35.95919 | -115.39407 | 13034 ft | 282 kts | 27° |
| 2026-05-08 03:47 | 35.97598 | -115.38190 | 13021 ft | 278 kts | 32° |
| 2026-05-08 03:48 | 35.99060 | -115.36616 | 12827 ft | 283 kts | 44° |
| 2026-05-08 03:48 | 36.00234 | -115.34597 | 12449 ft | 296 kts | 57° |
| 2026-05-08 03:48 | 36.01019 | -115.32216 | 12079 ft | 302 kts | 71° |
| 2026-05-08 03:48 | 36.01325 | -115.29653 | 11714 ft | 303 kts | 85° |
| 2026-05-08 03:49 | 36.01223 | -115.27096 | 11238 ft | 290 kts | 92° |
| 2026-05-08 03:49 | 36.01093 | -115.24723 | 10712 ft | 264 kts | 91° |
| 2026-05-08 03:49 | 36.00991 | -115.22555 | 10210 ft | 242 kts | 91° |
| 2026-05-08 03:49 | 36.00895 | -115.20612 | 9971 ft | 215 kts | 91° |
| 2026-05-08 03:50 | 36.00797 | -115.18873 | 9670 ft | 197 kts | 87° |
| 2026-05-08 03:50 | 36.01037 | -115.17275 | 9349 ft | 184 kts | 64° |
| 2026-05-08 03:50 | 36.01621 | -115.15912 | 9060 ft | 176 kts | 58° |
| 2026-05-08 03:50 | 36.02184 | -115.14653 | 8975 ft | 161 kts | 58° |
| 2026-05-08 03:51 | 36.02756 | -115.13408 | 8510 ft | 169 kts | 51° |
| 2026-05-08 03:51 | 36.03565 | -115.12350 | 8104 ft | 170 kts | 36° |
| 2026-05-08 03:51 | 36.04666 | -115.11912 | 7697 ft | 168 kts | 1° |
| 2026-05-08 03:51 | 36.05843 | -115.11825 | 7303 ft | 171 kts | 1° |
| 2026-05-08 03:52 | 36.07042 | -115.11720 | 6907 ft | 174 kts | 1° |
| 2026-05-08 03:52 | 36.08255 | -115.11616 | 6515 ft | 176 kts | 1° |
| 2026-05-08 03:52 | 36.09477 | -115.11510 | 6115 ft | 176 kts | 1° |
| 2026-05-08 03:52 | 36.10688 | -115.11258 | 5701 ft | 179 kts | 17° |
| 2026-05-08 03:53 | 36.11827 | -115.10635 | 5294 ft | 179 kts | 21° |
| 2026-05-08 03:53 | 36.12963 | -115.09993 | 4898 ft | 180 kts | 20° |
| 2026-05-08 03:53 | 36.14100 | -115.09342 | 4497 ft | 181 kts | 21° |
| 2026-05-08 03:53 | 36.15247 | -115.08693 | 4093 ft | 181 kts | 22° |
| 2026-05-08 03:54 | 36.16351 | -115.08098 | 3925 ft | 165 kts | 21° |
| 2026-05-08 03:54 | 36.17361 | -115.07587 | 3927 ft | 149 kts | 21° |
| 2026-05-08 03:54 | 36.18277 | -115.07127 | 3924 ft | 137 kts | 20° |
| 2026-05-08 03:54 | 36.19165 | -115.06829 | 3923 ft | 131 kts | 348° |
| 2026-05-08 03:55 | 36.19885 | -115.07445 | 3939 ft | 129 kts | 306° |
| 2026-05-08 03:55 | 36.20195 | -115.08457 | 3947 ft | 127 kts | 267° |
| 2026-05-08 03:55 | 36.19939 | -115.09461 | 3943 ft | 122 kts | 233° |
| 2026-05-08 03:55 | 36.19272 | -115.10057 | 3944 ft | 118 kts | 204° |
| 2026-05-08 03:56 | 36.18540 | -115.10482 | 3938 ft | 114 kts | 208° |
| 2026-05-08 03:56 | 36.17863 | -115.10907 | 3988 ft | 107 kts | 207° |
| 2026-05-08 03:56 | 36.17177 | -115.11336 | 3994 ft | 113 kts | 208° |
| 2026-05-08 03:56 | 36.16450 | -115.11783 | 3916 ft | 121 kts | 208° |
| 2026-05-08 03:57 | 36.15701 | -115.12249 | 3745 ft | 120 kts | 207° |
| 2026-05-08 03:57 | 36.15003 | -115.12679 | 3514 ft | 105 kts | 207° |
| 2026-05-08 03:57 | 36.14336 | -115.13095 | 3272 ft | 113 kts | 207° |
| 2026-05-08 03:57 | 36.13615 | -115.13538 | 3087 ft | 116 kts | 209° |
| 2026-05-08 03:58 | 36.13120 | -115.13822 | 2880 ft | 121 kts | 204° |
| 2026-05-08 03:58 | 36.12396 | -115.14241 | 2713 ft | 117 kts | 207° |
| 2026-05-08 03:58 | 36.11637 | -115.14678 | 2545 ft | 123 kts | 204° |
| 2026-05-08 03:58 | 36.10883 | -115.15116 | 2371 ft | 117 kts | 206° |
| 2026-05-08 03:59 | 36.09996 | -115.15628 | 2208 ft | 99 kts | 207° |
| 2026-05-08 03:59 | 36.09579 | -115.15869 | 2116 ft | 94 kts | 204° |
| 2026-05-08 03:59 | 36.09088 | -115.16148 | 2111 ft | 64 kts | 204° |
| 2026-05-08 03:59 | 36.08967 | -115.16218 | 2117 ft | 12 kts | 217° |
| 2026-05-08 04:00 | 36.08944 | -115.16374 | 2121 ft | 14 kts | 231° |
| 2026-05-08 04:00 | 36.08885 | -115.16420 | 2122 ft | 9 kts | 204° |
| 2026-05-08 04:00 | 36.08811 | -115.16458 | 2125 ft | 14 kts | 201° |
| 2026-05-08 04:00 | 36.08712 | -115.16514 | 2127 ft | 18 kts | 205° |
| 2026-05-08 04:01 | 36.08585 | -115.16586 | 2129 ft | 19 kts | 205° |
| 2026-05-08 04:01 | 36.08546 | -115.16694 | 2131 ft | 11 kts | 219° |
| 2026-05-08 04:01 | 36.08473 | -115.16740 | 2134 ft | 15 kts | 206° |
| 2026-05-08 04:01 | 36.08447 | -115.16755 | 2134 ft | 0 kts | 206° |
| 2026-05-08 04:02 | 36.08364 | -115.16804 | 2137 ft | 24 kts | 204° |
| 2026-05-08 04:02 | 36.08219 | -115.16885 | 2146 ft | 20 kts | 205° |
| 2026-05-08 04:03 | 36.08105 | -115.16952 | 2149 ft | 17 kts | 205° |
| 2026-05-08 04:03 | 36.07988 | -115.17028 | 2155 ft | 3 kts | 355° |
| 2026-05-08 04:03 | 36.08055 | -115.17031 | 2154 ft | 13 kts | 351° |
| 2026-05-08 04:04 | 36.08082 | -115.17079 | 2156 ft | 3 kts | 298° |
| 2026-05-08 04:04 | 36.08085 | -115.17082 | 2156 ft | 0 kts | 347° |